Time;durP1;ratioP1;P1;durP2;ratioP2;P2;SDS_P1;SDS_P2;PMS_P1;PMS_P2;Temp;Humidity;BMP_temperature;BMP_pressure;BME280_temperature;BME280_humidity;BME280_pressure;Samples;Min_cycle;Max_cycle;Signal;HPM_P1;HPM_P2
2023/06/09 00:02:13;;;;;;;9.57;2.90;;;;;;;;;;5067971;28;20044;-76
2023/06/09 00:04:39;;;;;;;6.13;2.67;;;;;;;;;;5066850;28;20029;-78
2023/06/09 00:07:05;;;;;;;8.88;2.63;;;;;;;;;;5067589;28;20033;-75
2023/06/09 00:09:31;;;;;;;6.97;2.70;;;;;;;;;;5066534;28;20040;-76
2023/06/09 00:11:56;;;;;;;7.25;2.83;;;;;;;;;;5067084;28;20029;-77
2023/06/09 00:14:22;;;;;;;6.63;2.90;;;;;;;;;;5067261;28;20070;-78
2023/06/09 00:16:47;;;;;;;6.03;2.65;;;;;;;;;;5066869;28;20414;-77
2023/06/09 00:19:14;;;;;;;7.25;2.65;;;;;;;;;;5067434;28;20028;-77
2023/06/09 00:21:39;;;;;;;7.10;2.67;;;;;;;;;;5066867;28;20501;-77
2023/06/09 00:24:05;;;;;;;9.52;3.10;;;;;;;;;;5067229;28;20127;-78
2023/06/09 00:26:31;;;;;;;6.20;2.85;;;;;;;;;;5066206;28;20040;-77
2023/06/09 00:28:56;;;;;;;4.85;2.80;;;;;;;;;;5067979;28;20145;-78
2023/06/09 00:31:22;;;;;;;7.28;2.83;;;;;;;;;;5067663;28;20025;-77
2023/06/09 00:33:47;;;;;;;10.43;2.90;;;;;;;;;;5067567;28;20103;-77
2023/06/09 00:36:12;;;;;;;5.63;2.63;;;;;;;;;;5066455;28;20119;-76
2023/06/09 00:38:38;;;;;;;5.80;2.60;;;;;;;;;;5066363;28;20373;-77
2023/06/09 00:41:03;;;;;;;6.90;3.00;;;;;;;;;;5067280;28;20506;-76
2023/06/09 00:43:29;;;;;;;5.78;2.70;;;;;;;;;;5067068;28;20388;-76
2023/06/09 00:45:55;;;;;;;8.32;2.70;;;;;;;;;;5072294;28;20027;-77
2023/06/09 00:48:20;;;;;;;8.60;2.80;;;;;;;;;;5073383;28;20541;-76
2023/06/09 00:50:47;;;;;;;8.95;2.92;;;;;;;;;;5067596;28;20361;-77
2023/06/09 00:53:15;;;;;;;7.13;2.58;;;;;;;;;;5065979;28;20036;-78
2023/06/09 00:55:41;;;;;;;7.97;2.95;;;;;;;;;;5067790;28;20031;-77
2023/06/09 00:58:08;;;;;;;8.48;2.90;;;;;;;;;;5067571;28;20051;-75
2023/06/09 01:00:35;;;;;;;8.10;2.88;;;;;;;;;;5067944;28;20362;-77
2023/06/09 01:03:02;;;;;;;5.10;2.50;;;;;;;;;;5066888;28;20025;-77
2023/06/09 01:05:39;;;;;;;4.80;2.55;;;;;;;;;;5067257;28;20044;-77
2023/06/09 01:08:28;;;;;;;9.98;2.70;;;;;;;;;;5067624;28;20028;-77
2023/06/09 01:11:06;;;;;;;6.53;2.70;;;;;;;;;;5071061;28;20059;-76
2023/06/09 01:13:55;;;;;;;9.13;2.72;;;;;;;;;;5071179;28;20028;-76
2023/06/09 01:16:31;;;;;;;6.13;2.40;;;;;;;;;;5070924;28;20032;-78
2023/06/09 01:19:00;;;;;;;7.95;2.90;;;;;;;;;;5070517;28;20319;-75
2023/06/09 01:21:35;;;;;;;7.57;2.70;;;;;;;;;;5070279;28;20017;-78
2023/06/09 01:24:32;;;;;;;4.38;2.50;;;;;;;;;;5070190;28;20056;-77
2023/06/09 01:27:02;;;;;;;7.90;2.70;;;;;;;;;;5047309;28;20041;-77
2023/06/09 01:29:32;;;;;;;8.98;2.75;;;;;;;;;;5071009;28;20632;-77
2023/06/09 01:31:59;;;;;;;5.07;2.60;;;;;;;;;;5071113;28;20035;-76
2023/06/09 01:34:25;;;;;;;8.93;2.58;;;;;;;;;;5070121;28;20089;-77
2023/06/09 01:36:51;;;;;;;9.68;3.13;;;;;;;;;;5069891;28;20070;-78
2023/06/09 01:39:18;;;;;;;5.30;2.70;;;;;;;;;;5069886;28;20043;-77
2023/06/09 01:41:44;;;;;;;6.85;2.78;;;;;;;;;;5069100;28;20024;-77
2023/06/09 01:44:09;;;;;;;7.35;3.08;;;;;;;;;;5068609;28;20477;-76
2023/06/09 01:46:35;;;;;;;7.88;3.00;;;;;;;;;;5070135;28;20027;-77
2023/06/09 01:49:00;;;;;;;5.78;2.60;;;;;;;;;;5069656;28;20032;-78
2023/06/09 01:51:56;;;;;;;8.63;2.63;;;;;;;;;;5070047;28;20028;-78
2023/06/09 01:54:46;;;;;;;4.90;2.53;;;;;;;;;;5065860;28;20036;-78
2023/06/09 01:57:29;;;;;;;;;;;;;;;;;;5070014;28;20017;-77
2023/06/09 01:59:59;;;;;;;7.88;2.65;;;;;;;;;;5069890;28;19958;-77
2023/06/09 02:02:27;;;;;;;7.43;2.70;;;;;;;;;;5070035;28;20036;-77
2023/06/09 02:04:53;;;;;;;9.43;2.95;;;;;;;;;;5070421;28;20534;-77
2023/06/09 02:07:21;;;;;;;6.53;2.97;;;;;;;;;;5069407;28;20115;-77
2023/06/09 02:09:47;;;;;;;9.77;2.75;;;;;;;;;;5069294;28;20108;-78
2023/06/09 02:12:12;;;;;;;8.50;2.65;;;;;;;;;;5069398;28;20107;-78
2023/06/09 02:14:39;;;;;;;5.35;2.75;;;;;;;;;;5069450;28;20035;-77
2023/06/09 02:17:04;;;;;;;6.03;2.75;;;;;;;;;;5070095;28;20044;-77
2023/06/09 02:19:37;;;;;;;6.18;2.80;;;;;;;;;;5068850;28;20440;-77
2023/06/09 02:22:03;;;;;;;9.75;2.92;;;;;;;;;;5069172;28;20036;-78
2023/06/09 02:24:28;;;;;;;6.93;3.03;;;;;;;;;;5069151;28;20035;-77
2023/06/09 02:26:56;;;;;;;5.70;2.65;;;;;;;;;;5070131;28;20459;-77
2023/06/09 02:29:23;;;;;;;7.53;2.90;;;;;;;;;;5069595;28;20107;-77
2023/06/09 02:31:49;;;;;;;6.43;3.00;;;;;;;;;;5069387;28;20020;-77
2023/06/09 02:34:14;;;;;;;8.32;3.15;;;;;;;;;;5068691;28;20518;-77
2023/06/09 02:36:42;;;;;;;7.35;2.90;;;;;;;;;;5068778;28;20025;-78
2023/06/09 02:39:08;;;;;;;6.65;2.75;;;;;;;;;;5068944;28;20060;-77
2023/06/09 02:41:34;;;;;;;9.43;2.90;;;;;;;;;;5069009;28;20102;-78
2023/06/09 02:44:02;;;;;;;7.00;2.75;;;;;;;;;;5068877;28;20033;-77
2023/06/09 02:46:29;;;;;;;4.47;2.72;;;;;;;;;;5069098;28;20032;-77
2023/06/09 02:48:54;;;;;;;9.20;2.78;;;;;;;;;;5068488;28;20048;-77
2023/06/09 02:51:20;;;;;;;8.45;2.70;;;;;;;;;;5067457;28;20506;-75
2023/06/09 02:53:45;;;;;;;5.32;2.63;;;;;;;;;;5068409;28;20030;-79
2023/06/09 02:56:11;;;;;;;6.18;2.50;;;;;;;;;;5069509;28;20050;-78
2023/06/09 02:58:36;;;;;;;5.80;2.55;;;;;;;;;;5068872;28;20024;-77
2023/06/09 03:01:02;;;;;;;9.45;2.88;;;;;;;;;;5068957;28;20029;-78
2023/06/09 03:03:28;;;;;;;6.32;2.47;;;;;;;;;;5068068;28;20028;-75
2023/06/09 03:05:55;;;;;;;7.10;2.80;;;;;;;;;;5068387;28;20033;-77
2023/06/09 03:08:20;;;;;;;6.00;2.80;;;;;;;;;;5067943;28;20031;-77
2023/06/09 03:10:46;;;;;;;6.97;2.78;;;;;;;;;;5068295;28;20029;-76
2023/06/09 03:13:11;;;;;;;7.80;2.78;;;;;;;;;;5068806;28;20070;-79
2023/06/09 03:15:40;;;;;;;6.30;2.53;;;;;;;;;;5068604;28;20028;-78
2023/06/09 03:18:07;;;;;;;7.53;2.80;;;;;;;;;;5068205;28;20610;-78
2023/06/09 03:20:34;;;;;;;5.43;2.50;;;;;;;;;;5068126;28;20029;-78
2023/06/09 03:22:59;;;;;;;6.05;2.58;;;;;;;;;;5067766;28;20143;-78
2023/06/09 03:25:25;;;;;;;6.85;2.70;;;;;;;;;;5067995;28;20103;-76
2023/06/09 03:27:52;;;;;;;6.07;2.50;;;;;;;;;;5068443;28;20039;-75
2023/06/09 03:30:17;;;;;;;6.93;2.63;;;;;;;;;;5067775;28;20429;-78
2023/06/09 03:32:42;;;;;;;6.55;2.40;;;;;;;;;;5068200;28;20074;-78
2023/06/09 03:35:08;;;;;;;5.55;2.42;;;;;;;;;;5066366;28;20028;-79
2023/06/09 03:37:34;;;;;;;6.32;2.83;;;;;;;;;;5067700;28;20024;-78
2023/06/09 03:39:59;;;;;;;7.72;2.50;;;;;;;;;;5067150;28;20040;-77
2023/06/09 03:42:25;;;;;;;6.70;2.50;;;;;;;;;;5067696;28;20070;-78
2023/06/09 03:44:57;;;;;;;6.55;2.50;;;;;;;;;;5067794;28;20047;-78
2023/06/09 03:47:23;;;;;;;6.07;2.45;;;;;;;;;;5068870;28;20036;-79
2023/06/09 03:49:48;;;;;;;9.50;2.95;;;;;;;;;;5067806;28;20025;-74
2023/06/09 03:52:14;;;;;;;5.10;2.30;;;;;;;;;;5067476;28;20423;-78
2023/06/09 03:54:39;;;;;;;6.82;2.50;;;;;;;;;;5067694;28;20065;-75
2023/06/09 03:57:05;;;;;;;5.68;2.58;;;;;;;;;;5068111;28;20580;-79
2023/06/09 03:59:30;;;;;;;6.60;2.85;;;;;;;;;;5068326;28;20029;-78
2023/06/09 04:01:59;;;;;;;7.78;2.88;;;;;;;;;;5068484;28;20055;-77
2023/06/09 04:04:24;;;;;;;7.43;2.45;;;;;;;;;;5067798;28;20020;-78
2023/06/09 04:06:50;;;;;;;8.07;2.47;;;;;;;;;;5068081;28;20042;-78
2023/06/09 04:09:15;;;;;;;4.40;2.35;;;;;;;;;;5066511;28;20021;-78
2023/06/09 04:11:41;;;;;;;5.85;2.65;;;;;;;;;;5068342;28;20035;-79
2023/06/09 04:14:07;;;;;;;6.68;2.55;;;;;;;;;;5068078;28;20108;-78
2023/06/09 04:16:33;;;;;;;4.90;2.42;;;;;;;;;;5067328;28;20053;-77
2023/06/09 04:18:58;;;;;;;8.23;2.65;;;;;;;;;;5066862;28;20051;-75
2023/06/09 04:21:24;;;;;;;6.20;2.50;;;;;;;;;;5067154;28;20017;-78
2023/06/09 04:23:49;;;;;;;5.78;2.40;;;;;;;;;;5067274;28;20020;-78
2023/06/09 04:26:15;;;;;;;5.93;2.58;;;;;;;;;;5067520;28;20051;-77
2023/06/09 04:28:41;;;;;;;7.85;2.65;;;;;;;;;;5067062;28;20103;-78
2023/06/09 04:31:08;;;;;;;6.88;2.80;;;;;;;;;;5067787;28;20021;-78
2023/06/09 04:33:36;;;;;;;6.20;2.40;;;;;;;;;;5066543;28;20033;-78
2023/06/09 04:36:03;;;;;;;6.32;2.63;;;;;;;;;;5067655;28;20014;-78
2023/06/09 04:38:33;;;;;;;5.68;2.67;;;;;;;;;;5066309;28;20086;-78
2023/06/09 04:41:03;;;;;;;6.57;2.57;;;;;;;;;;5068033;28;20520;-78
2023/06/09 04:43:33;;;;;;;6.93;2.55;;;;;;;;;;5068345;28;20525;-78
2023/06/09 04:46:05;;;;;;;5.57;2.58;;;;;;;;;;5070906;28;20170;-78
2023/06/09 04:48:33;;;;;;;7.53;2.88;;;;;;;;;;5071411;28;20041;-78
2023/06/09 04:51:02;;;;;;;5.20;2.60;;;;;;;;;;5071467;28;20682;-77
2023/06/09 04:53:32;;;;;;;8.98;2.58;;;;;;;;;;5071320;28;20561;-78
2023/06/09 04:55:58;;;;;;;5.97;2.67;;;;;;;;;;5071321;28;20024;-78
2023/06/09 04:58:25;;;;;;;5.97;2.58;;;;;;;;;;5070526;28;20017;-78
2023/06/09 05:00:51;;;;;;;7.28;2.88;;;;;;;;;;5070691;28;20479;-76
2023/06/09 05:03:17;;;;;;;7.88;2.83;;;;;;;;;;5071464;28;20025;-77
2023/06/09 05:05:43;;;;;;;6.78;2.78;;;;;;;;;;5071475;28;20377;-76
2023/06/09 05:08:09;;;;;;;6.85;2.78;;;;;;;;;;5070868;28;20035;-75
2023/06/09 05:10:35;;;;;;;6.70;2.65;;;;;;;;;;5070390;28;20025;-75
2023/06/09 05:13:04;;;;;;;6.28;2.78;;;;;;;;;;5070424;28;20032;-77
2023/06/09 05:15:30;;;;;;;5.63;2.60;;;;;;;;;;5070102;28;20102;-78
2023/06/09 05:17:57;;;;;;;5.40;2.50;;;;;;;;;;5070547;28;20052;-77
2023/06/09 05:20:23;;;;;;;6.55;3.10;;;;;;;;;;5070141;28;20057;-76
2023/06/09 05:22:48;;;;;;;6.75;2.85;;;;;;;;;;5069976;28;20484;-78
2023/06/09 05:25:14;;;;;;;11.27;2.90;;;;;;;;;;5070205;28;20021;-77
2023/06/09 05:27:39;;;;;;;6.47;2.75;;;;;;;;;;5070303;28;20024;-78
2023/06/09 05:30:06;;;;;;;6.85;2.83;;;;;;;;;;5069942;28;20131;-78
2023/06/09 05:32:35;;;;;;;5.72;2.58;;;;;;;;;;5070584;28;20094;-77
2023/06/09 05:35:00;;;;;;;8.75;2.90;;;;;;;;;;5070176;28;20523;-76
2023/06/09 05:37:26;;;;;;;6.75;2.72;;;;;;;;;;5069595;28;20094;-76
2023/06/09 05:39:52;;;;;;;6.28;2.67;;;;;;;;;;5070200;28;20106;-78
2023/06/09 05:42:18;;;;;;;4.63;2.60;;;;;;;;;;5072590;28;20028;-76
2023/06/09 05:44:43;;;;;;;7.53;2.50;;;;;;;;;;5070029;28;20031;-80
2023/06/09 05:47:08;;;;;;;5.70;2.97;;;;;;;;;;5073265;28;20025;-76
2023/06/09 05:49:34;;;;;;;5.10;2.75;;;;;;;;;;5071464;28;20127;-77
2023/06/09 05:52:00;;;;;;;8.98;2.65;;;;;;;;;;5070014;28;20024;-79
2023/06/09 05:54:26;;;;;;;8.57;2.60;;;;;;;;;;5069119;28;20025;-76
2023/06/09 05:56:53;;;;;;;6.43;2.65;;;;;;;;;;5070561;28;20020;-77
2023/06/09 05:59:20;;;;;;;7.05;2.85;;;;;;;;;;5068953;28;20664;-74
2023/06/09 06:01:47;;;;;;;9.93;2.95;;;;;;;;;;5070176;28;20534;-77
2023/06/09 06:04:12;;;;;;;7.07;2.88;;;;;;;;;;5069240;28;20541;-77
2023/06/09 06:06:38;;;;;;;7.38;2.63;;;;;;;;;;5069617;28;20021;-75
2023/06/09 06:09:03;;;;;;;5.65;2.85;;;;;;;;;;5070235;28;20065;-74
2023/06/09 06:11:29;;;;;;;8.48;3.10;;;;;;;;;;5068392;28;20071;-81
2023/06/09 06:13:54;;;;;;;9.18;3.10;;;;;;;;;;5075684;28;20029;-78
2023/06/09 06:16:20;;;;;;;7.78;2.40;;;;;;;;;;5079645;28;20028;-76
2023/06/09 06:18:46;;;;;;;6.53;2.47;;;;;;;;;;5075442;28;20024;-78
2023/06/09 06:21:11;;;;;;;7.40;2.67;;;;;;;;;;5077376;28;20020;-76
2023/06/09 06:23:37;;;;;;;7.18;2.42;;;;;;;;;;5077754;28;20055;-77
2023/06/09 06:26:02;;;;;;;8.23;2.65;;;;;;;;;;5080023;28;20035;-76
2023/06/09 06:28:28;;;;;;;5.80;2.38;;;;;;;;;;5080264;28;20024;-72
2023/06/09 06:30:54;;;;;;;8.13;2.85;;;;;;;;;;5078738;28;20036;-75
2023/06/09 06:33:20;;;;;;;7.68;2.78;;;;;;;;;;5075441;28;20202;-75
2023/06/09 06:35:45;;;;;;;6.13;2.65;;;;;;;;;;5079732;28;20096;-74
2023/06/09 06:38:11;;;;;;;6.75;2.55;;;;;;;;;;5077872;28;20025;-75
2023/06/09 06:40:36;;;;;;;11.27;2.88;;;;;;;;;;5079432;28;20110;-75
2023/06/09 06:43:02;;;;;;;6.43;2.65;;;;;;;;;;5080076;28;20071;-78
2023/06/09 06:45:27;;;;;;;6.43;2.63;;;;;;;;;;5076832;28;20027;-74
2023/06/09 06:47:53;;;;;;;6.25;3.15;;;;;;;;;;5080143;28;20036;-75
2023/06/09 06:50:19;;;;;;;7.70;2.70;;;;;;;;;;5081067;28;20025;-76
2023/06/09 06:52:46;;;;;;;7.60;2.65;;;;;;;;;;5081016;28;20020;-75
2023/06/09 06:55:11;;;;;;;6.78;2.75;;;;;;;;;;5079263;28;20020;-74
2023/06/09 06:57:37;;;;;;;4.82;3.00;;;;;;;;;;5079193;28;20306;-74
2023/06/09 07:00:16;;;;;;;7.43;3.33;;;;;;;;;;5076839;28;20036;-75
2023/06/09 07:02:45;;;;;;;8.27;3.10;;;;;;;;;;5096547;28;20028;-75
2023/06/09 07:05:10;;;;;;;6.03;2.75;;;;;;;;;;5078359;28;20036;-74
2023/06/09 07:07:36;;;;;;;10.43;3.42;;;;;;;;;;5077112;28;20198;-75
2023/06/09 07:10:02;;;;;;;7.82;3.47;;;;;;;;;;5076094;28;20400;-75
2023/06/09 07:12:28;;;;;;;7.28;3.10;;;;;;;;;;5079428;28;20355;-75
2023/06/09 07:14:53;;;;;;;10.13;3.50;;;;;;;;;;5076421;28;20055;-76
2023/06/09 07:17:18;;;;;;;8.15;3.10;;;;;;;;;;5072942;28;20040;-76
2023/06/09 07:19:44;;;;;;;8.85;3.35;;;;;;;;;;5078893;28;20028;-76
2023/06/09 07:22:10;;;;;;;5.80;2.85;;;;;;;;;;5078327;28;20358;-76
2023/06/09 07:24:35;;;;;;;8.65;3.00;;;;;;;;;;5072213;28;20111;-75
2023/06/09 07:27:01;;;;;;;5.93;3.00;;;;;;;;;;5067980;28;20188;-76
2023/06/09 07:29:27;;;;;;;6.60;3.05;;;;;;;;;;5067576;28;20032;-76
2023/06/09 07:31:52;;;;;;;5.85;3.10;;;;;;;;;;5068129;28;20775;-76
2023/06/09 07:34:18;;;;;;;5.88;3.03;;;;;;;;;;5058074;28;20033;-77
2023/06/09 07:36:46;;;;;;;8.35;3.03;;;;;;;;;;5049420;28;20036;-77
2023/06/09 07:39:11;;;;;;;7.40;3.00;;;;;;;;;;5051409;28;20067;-78
2023/06/09 07:41:37;;;;;;;7.15;3.20;;;;;;;;;;5049849;28;20509;-76
2023/06/09 07:44:03;;;;;;;8.63;3.10;;;;;;;;;;5046678;28;20056;-76
2023/06/09 07:46:30;;;;;;;9.77;3.38;;;;;;;;;;5047323;28;20029;-76
2023/06/09 07:48:55;;;;;;;6.93;3.38;;;;;;;;;;5046643;28;20477;-76
2023/06/09 07:51:21;;;;;;;7.53;2.90;;;;;;;;;;5045157;28;20064;-76
2023/06/09 07:53:46;;;;;;;8.52;3.17;;;;;;;;;;5045854;28;20069;-76
2023/06/09 07:56:12;;;;;;;7.68;3.00;;;;;;;;;;5045428;28;20659;-77
2023/06/09 07:58:37;;;;;;;8.75;3.13;;;;;;;;;;5045521;28;20115;-76
2023/06/09 08:01:03;;;;;;;5.55;2.88;;;;;;;;;;5045865;28;20021;-76
2023/06/09 08:03:34;;;;;;;9.60;3.13;;;;;;;;;;5047707;28;20059;-77
2023/06/09 08:06:01;;;;;;;5.97;3.10;;;;;;;;;;5048095;28;20065;-76
2023/06/09 08:08:28;;;;;;;6.13;2.78;;;;;;;;;;5047466;28;20025;-76
2023/06/09 08:10:54;;;;;;;8.60;3.10;;;;;;;;;;5047305;28;20523;-76
2023/06/09 08:13:20;;;;;;;7.80;3.08;;;;;;;;;;5047566;28;20029;-77
2023/06/09 08:15:45;;;;;;;6.85;3.00;;;;;;;;;;5047544;28;20029;-76
2023/06/09 08:18:11;;;;;;;6.72;2.97;;;;;;;;;;5046486;28;20056;-77
2023/06/09 08:20:36;;;;;;;6.38;3.10;;;;;;;;;;5047828;28;20057;-76
2023/06/09 08:23:02;;;;;;;10.63;3.85;;;;;;;;;;5047904;28;20112;-76
2023/06/09 08:25:27;;;;;;;8.10;3.47;;;;;;;;;;5047878;28;20440;-77
2023/06/09 08:27:53;;;;;;;7.75;3.10;;;;;;;;;;5047080;28;20025;-77
2023/06/09 08:30:18;;;;;;;8.43;3.30;;;;;;;;;;5046335;28;20036;-77
2023/06/09 08:32:44;;;;;;;7.40;3.25;;;;;;;;;;5048019;28;20029;-77
2023/06/09 08:35:10;;;;;;;11.30;3.45;;;;;;;;;;5047260;28;20029;-76
2023/06/09 08:37:36;;;;;;;9.27;3.63;;;;;;;;;;5046572;28;20028;-76
2023/06/09 08:40:04;;;;;;;11.82;3.58;;;;;;;;;;5047231;28;20048;-76
2023/06/09 08:42:31;;;;;;;9.30;3.50;;;;;;;;;;5047608;28;20532;-76
2023/06/09 08:45:04;;;;;;;6.32;3.30;;;;;;;;;;5047509;28;20393;-76
2023/06/09 08:47:29;;;;;;;10.45;3.70;;;;;;;;;;5046692;28;20036;-77
2023/06/09 08:49:57;;;;;;;7.90;3.65;;;;;;;;;;5047058;28;20025;-76
2023/06/09 08:52:26;;;;;;;11.50;3.90;;;;;;;;;;5047127;28;20036;-76
2023/06/09 08:54:53;;;;;;;10.57;3.88;;;;;;;;;;5047907;28;20063;-77
2023/06/09 08:57:19;;;;;;;7.10;3.72;;;;;;;;;;5047994;28;20096;-77
2023/06/09 08:59:48;;;;;;;6.63;3.83;;;;;;;;;;5046129;28;20051;-75
2023/06/09 09:02:17;;;;;;;8.63;3.67;;;;;;;;;;5059131;28;20032;-76
2023/06/09 09:04:43;;;;;;;6.90;3.60;;;;;;;;;;5047781;28;20047;-76
2023/06/09 09:07:11;;;;;;;7.68;3.88;;;;;;;;;;5047326;28;20029;-77
2023/06/09 09:09:39;;;;;;;9.93;3.53;;;;;;;;;;5047422;28;20121;-76
2023/06/09 09:12:09;;;;;;;6.80;3.10;;;;;;;;;;5047603;28;20029;-76
2023/06/09 09:14:42;;;;;;;9.18;3.35;;;;;;;;;;5047369;28;20075;-75
2023/06/09 09:17:11;;;;;;;7.25;3.60;;;;;;;;;;5047367;28;20029;-77
2023/06/09 09:19:45;;;;;;;8.05;3.80;;;;;;;;;;5046975;28;20025;-76
2023/06/09 09:22:10;;;;;;;8.77;3.60;;;;;;;;;;5045958;28;20098;-77
2023/06/09 09:24:36;;;;;;;11.35;3.70;;;;;;;;;;5046828;28;20447;-77
2023/06/09 09:27:14;;;;;;;7.57;3.25;;;;;;;;;;5045106;28;20036;-76
2023/06/09 09:29:41;;;;;;;6.85;4.18;;;;;;;;;;5048983;28;20026;-75
2023/06/09 09:32:07;;;;;;;7.13;3.55;;;;;;;;;;5049139;28;20434;-76
2023/06/09 09:34:33;;;;;;;9.70;3.88;;;;;;;;;;5050899;28;20029;-76
2023/06/09 09:36:58;;;;;;;10.18;3.97;;;;;;;;;;5050056;28;20496;-77
2023/06/09 09:39:24;;;;;;;9.85;3.80;;;;;;;;;;5049602;28;20049;-76
2023/06/09 09:42:06;;;;;;;7.97;3.75;;;;;;;;;;5049908;28;20108;-77
2023/06/09 09:44:38;;;;;;;7.22;3.50;;;;;;;;;;5049802;28;20041;-76
2023/06/09 09:47:06;;;;;;;10.60;4.00;;;;;;;;;;5050099;28;20102;-76
2023/06/09 09:49:31;;;;;;;7.03;4.10;;;;;;;;;;5049973;28;20021;-76
2023/06/09 09:51:58;;;;;;;6.82;4.20;;;;;;;;;;5049498;28;20028;-76
2023/06/09 09:54:26;;;;;;;7.57;3.70;;;;;;;;;;5049606;28;20063;-76
2023/06/09 09:56:52;;;;;;;7.43;3.63;;;;;;;;;;5049075;28;20032;-76
2023/06/09 09:59:18;;;;;;;8.63;3.97;;;;;;;;;;5050038;28;20021;-77
2023/06/09 10:01:44;;;;;;;7.90;3.83;;;;;;;;;;5050153;28;20076;-77
2023/06/09 10:04:10;;;;;;;8.85;3.80;;;;;;;;;;5049666;28;20108;-77
2023/06/09 10:06:37;;;;;;;6.03;3.55;;;;;;;;;;5050131;28;20104;-76
2023/06/09 10:09:04;;;;;;;11.00;4.03;;;;;;;;;;5049443;28;20940;-77
2023/06/09 10:11:31;;;;;;;9.30;3.92;;;;;;;;;;5049805;28;20464;-77
2023/06/09 10:13:59;;;;;;;9.48;4.15;;;;;;;;;;5048231;28;20025;-77
2023/06/09 10:16:26;;;;;;;9.75;4.00;;;;;;;;;;5049903;28;20479;-76
2023/06/09 10:18:51;;;;;;;8.20;3.60;;;;;;;;;;5049539;28;20060;-76
2023/06/09 10:21:18;;;;;;;10.95;4.20;;;;;;;;;;5049303;28;20052;-77
2023/06/09 10:23:44;;;;;;;7.32;3.83;;;;;;;;;;5049073;28;20564;-77
2023/06/09 10:26:10;;;;;;;9.52;4.03;;;;;;;;;;5049845;28;20029;-76
2023/06/09 10:28:37;;;;;;;8.23;4.40;;;;;;;;;;5048951;28;20032;-77
2023/06/09 10:31:04;;;;;;;9.40;4.28;;;;;;;;;;5047728;28;20058;-77
2023/06/09 10:33:38;;;;;;;9.27;4.28;;;;;;;;;;5049251;28;20039;-76
2023/06/09 10:36:09;;;;;;;10.60;4.18;;;;;;;;;;5049261;28;20033;-76
2023/06/09 10:38:35;;;;;;;8.55;4.47;;;;;;;;;;5048124;28;20110;-76
2023/06/09 10:41:33;;;;;;;9.88;4.65;;;;;;;;;;5048457;28;20028;-74
2023/06/09 10:44:45;;;;;;;9.88;4.45;;;;;;;;;;5052090;28;20086;-76
2023/06/09 10:47:43;;;;;;;6.15;3.95;;;;;;;;;;5065822;28;20029;-76
2023/06/09 10:50:30;;;;;;;7.75;4.32;;;;;;;;;;5046792;28;20025;-76
2023/06/09 10:52:57;;;;;;;9.95;4.57;;;;;;;;;;5058277;28;20115;-76
2023/06/09 10:55:27;;;;;;;10.25;4.45;;;;;;;;;;5052350;28;20021;-76
2023/06/09 10:57:54;;;;;;;7.07;4.20;;;;;;;;;;5056640;28;20092;-79
2023/06/09 11:00:20;;;;;;;13.02;4.72;;;;;;;;;;5055918;28;20029;-76
2023/06/09 11:02:50;;;;;;;8.80;4.15;;;;;;;;;;5056482;28;20028;-76
2023/06/09 11:05:18;;;;;;;10.75;4.47;;;;;;;;;;5057915;28;20492;-78
2023/06/09 11:07:47;;;;;;;8.68;4.57;;;;;;;;;;5050237;28;20056;-74
2023/06/09 11:10:13;;;;;;;6.97;4.38;;;;;;;;;;5069568;28;20052;-74
2023/06/09 11:12:42;;;;;;;7.85;4.57;;;;;;;;;;5078972;28;20028;-74
2023/06/09 11:15:11;;;;;;;8.30;4.60;;;;;;;;;;5076394;28;20027;-78
2023/06/09 11:17:43;;;;;;;9.45;4.38;;;;;;;;;;5070445;28;20024;-76
2023/06/09 11:20:20;;;;;;;7.60;4.65;;;;;;;;;;5075127;28;20062;-75
2023/06/09 11:22:48;;;;;;;10.27;4.47;;;;;;;;;;5078158;28;20228;-75
2023/06/09 11:25:19;;;;;;;8.63;4.78;;;;;;;;;;5068250;28;20052;-75
2023/06/09 11:28:09;;;;;;;8.57;4.68;;;;;;;;;;5071351;28;20029;-75
2023/06/09 11:31:01;;;;;;;9.20;4.70;;;;;;;;;;5072191;28;20042;-76
2023/06/09 11:33:59;;;;;;;8.93;4.60;;;;;;;;;;5078708;28;20017;-75
2023/06/09 11:36:27;;;;;;;7.30;4.18;;;;;;;;;;5056429;28;20043;-77
2023/06/09 11:38:59;;;;;;;8.73;4.22;;;;;;;;;;5072661;28;20044;-80
2023/06/09 11:41:25;;;;;;;11.48;4.57;;;;;;;;;;5079594;28;20036;-80
2023/06/09 11:43:53;;;;;;;8.07;4.32;;;;;;;;;;5077661;28;20095;-79
2023/06/09 11:46:19;;;;;;;11.35;5.13;;;;;;;;;;5076503;28;20078;-80
2023/06/09 11:49:07;;;;;;;9.52;4.55;;;;;;;;;;5079278;28;20240;-79
2023/06/09 11:51:51;;;;;;;8.20;4.72;;;;;;;;;;5079580;28;20017;-77
2023/06/09 11:54:17;;;;;;;8.60;4.75;;;;;;;;;;5075673;28;20036;-79
2023/06/09 11:56:42;;;;;;;9.25;4.90;;;;;;;;;;5073853;28;20024;-77
2023/06/09 11:59:08;;;;;;;12.38;5.25;;;;;;;;;;5078186;28;20377;-78
2023/06/09 12:01:36;;;;;;;9.07;5.07;;;;;;;;;;5079599;28;20079;-76
2023/06/09 12:04:04;;;;;;;9.30;5.20;;;;;;;;;;5080014;28;20028;-76
2023/06/09 12:06:31;;;;;;;7.90;4.93;;;;;;;;;;5079066;28;20047;-77
2023/06/09 12:09:16;;;;;;;8.07;4.90;;;;;;;;;;5079408;28;20236;-77
2023/06/09 12:11:49;;;;;;;10.65;4.88;;;;;;;;;;5079198;28;20024;-76
2023/06/09 12:14:14;;;;;;;12.80;5.80;;;;;;;;;;5079216;28;20030;-76
2023/06/09 12:16:40;;;;;;;9.90;5.10;;;;;;;;;;5068975;28;20025;-76
2023/06/09 12:19:06;;;;;;;7.85;4.65;;;;;;;;;;5069219;28;20117;-75
2023/06/09 12:21:32;;;;;;;8.90;5.60;;;;;;;;;;5066153;28;20028;-76
2023/06/09 12:23:58;;;;;;;11.73;6.07;;;;;;;;;;5065551;28;20021;-77
2023/06/09 12:26:24;;;;;;;8.52;5.57;;;;;;;;;;5065154;28;20036;-76
2023/06/09 12:28:55;;;;;;;13.50;5.82;;;;;;;;;;5065322;28;20021;-76
2023/06/09 12:31:20;;;;;;;16.70;5.80;;;;;;;;;;5060804;28;20112;-76
2023/06/09 12:33:49;;;;;;;14.40;5.88;;;;;;;;;;5056804;28;20642;-76
2023/06/09 12:36:14;;;;;;;10.60;6.20;;;;;;;;;;5056138;28;20021;-76
2023/06/09 12:38:43;;;;;;;12.43;6.00;;;;;;;;;;5045176;28;20397;-75
2023/06/09 12:41:13;;;;;;;11.20;6.57;;;;;;;;;;5060803;28;20032;-76
2023/06/09 12:43:56;;;;;;;10.18;5.97;;;;;;;;;;5066963;28;20353;-75
2023/06/09 12:46:38;;;;;;;9.52;6.03;;;;;;;;;;5067335;28;20500;-77
2023/06/09 12:49:09;;;;;;;10.48;5.80;;;;;;;;;;5058201;28;20074;-76
2023/06/09 12:51:36;;;;;;;13.05;5.90;;;;;;;;;;5046877;28;20029;-74
2023/06/09 12:54:03;;;;;;;10.02;5.35;;;;;;;;;;5046981;28;20519;-76
2023/06/09 12:56:28;;;;;;;10.68;5.78;;;;;;;;;;5055416;28;20029;-76
2023/06/09 12:58:54;;;;;;;9.27;5.38;;;;;;;;;;5052485;28;20543;-77
2023/06/09 13:01:21;;;;;;;11.82;5.50;;;;;;;;;;5048561;28;20020;-75
2023/06/09 13:06:53;;;;;;;6.30;4.55;;;;;;;;;;5069004;28;20040;-76
2023/06/09 13:09:19;;;;;;;8.43;4.80;;;;;;;;;;5073416;28;20024;-76
2023/06/09 13:11:44;;;;;;;8.32;5.03;;;;;;;;;;5070365;28;20031;-76
2023/06/09 13:14:10;;;;;;;6.53;4.97;;;;;;;;;;5070449;28;20016;-76
2023/06/09 13:16:35;;;;;;;8.77;4.65;;;;;;;;;;5071000;28;20028;-76
2023/06/09 13:19:00;;;;;;;8.63;5.15;;;;;;;;;;5071479;28;20058;-76
2023/06/09 13:21:29;;;;;;;10.70;4.82;;;;;;;;;;5071726;28;20035;-76
2023/06/09 13:23:54;;;;;;;7.38;4.45;;;;;;;;;;5074957;28;20336;-75
2023/06/09 13:26:21;;;;;;;8.32;4.80;;;;;;;;;;5073911;28;20032;-75
2023/06/09 13:28:47;;;;;;;6.45;4.30;;;;;;;;;;5073918;28;20021;-75
2023/06/09 13:31:12;;;;;;;7.80;4.32;;;;;;;;;;5071600;28;20040;-75
2023/06/09 13:33:38;;;;;;;5.75;3.80;;;;;;;;;;5061502;28;20029;-76
2023/06/09 13:36:03;;;;;;;6.93;4.25;;;;;;;;;;5066851;28;20029;-76
2023/06/09 13:38:29;;;;;;;8.05;4.35;;;;;;;;;;5073077;28;20051;-76
2023/06/09 13:40:54;;;;;;;6.57;3.78;;;;;;;;;;5070288;28;20416;-76
2023/06/09 13:43:20;;;;;;;5.82;3.65;;;;;;;;;;5071630;28;20024;-76
2023/06/09 13:45:45;;;;;;;6.88;4.07;;;;;;;;;;5074916;28;20104;-77
2023/06/09 13:48:11;;;;;;;5.97;3.92;;;;;;;;;;5073702;28;20028;-76
2023/06/09 13:50:36;;;;;;;7.78;3.83;;;;;;;;;;5081602;28;20036;-77
2023/06/09 13:53:04;;;;;;;6.82;3.70;;;;;;;;;;5073061;28;20104;-75
2023/06/09 13:55:29;;;;;;;4.82;3.53;;;;;;;;;;5079116;28;20070;-76
2023/06/09 13:57:55;;;;;;;7.45;3.70;;;;;;;;;;5072962;28;20071;-75
2023/06/09 14:00:20;;;;;;;7.65;3.88;;;;;;;;;;5071840;28;20021;-74
2023/06/09 14:02:46;;;;;;;5.78;3.58;;;;;;;;;;5070656;28;20409;-77
2023/06/09 14:05:13;;;;;;;6.10;3.72;;;;;;;;;;5072530;28;20039;-75
2023/06/09 14:07:39;;;;;;;6.40;3.60;;;;;;;;;;5069876;28;20028;-74
2023/06/09 14:10:06;;;;;;;7.25;3.80;;;;;;;;;;5069776;28;20038;-76
2023/06/09 14:12:32;;;;;;;9.40;3.95;;;;;;;;;;5069561;28;20093;-77
2023/06/09 14:14:57;;;;;;;5.88;4.00;;;;;;;;;;5068734;28;20036;-78
2023/06/09 14:17:22;;;;;;;5.03;3.85;;;;;;;;;;5067605;28;20078;-77
2023/06/09 14:19:48;;;;;;;10.23;3.75;;;;;;;;;;5065387;28;20012;-77
2023/06/09 14:22:14;;;;;;;7.20;3.85;;;;;;;;;;5057970;28;20086;-77
2023/06/09 14:24:39;;;;;;;6.28;3.60;;;;;;;;;;5060725;28;20036;-77
2023/06/09 14:27:05;;;;;;;7.43;3.60;;;;;;;;;;5069857;28;20032;-76
2023/06/09 14:29:32;;;;;;;7.82;3.50;;;;;;;;;;5055802;28;20033;-77
2023/06/09 14:32:01;;;;;;;7.57;3.33;;;;;;;;;;5049663;28;20025;-76
2023/06/09 14:34:26;;;;;;;7.82;2.90;;;;;;;;;;5051275;28;20025;-77
2023/06/09 14:36:51;;;;;;;6.13;3.17;;;;;;;;;;5055724;28;20024;-77
2023/06/09 14:39:20;;;;;;;5.57;2.70;;;;;;;;;;5070363;28;20124;-76
2023/06/09 14:41:46;;;;;;;5.55;2.30;;;;;;;;;;5078327;28;20020;-76
2023/06/09 14:44:12;;;;;;;6.45;3.20;;;;;;;;;;5049663;28;20036;-76
2023/06/09 14:46:37;;;;;;;6.13;2.83;;;;;;;;;;5047967;28;20059;-77
2023/06/09 14:49:03;;;;;;;3.75;2.30;;;;;;;;;;5049056;28;20020;-75